Wetterdaten vom Montag, 22. Juli 2019

Temperatur Taupunkt Windchill Luftfeuchte Luftdruck Solarstrahlung Regen ET
(Verdunstung von Wasser)
Wind
Max 31.7 °C
17:00
14.9 °C
10:35
31.7 °C
17:00
90%
05:00
1018.2 hPa
11:05
926 W/m²
13:05
24.5 km/h
15:25 km/h
Durchschnitt 22.6 °C 12.3 °C 22.5 °C 58% 1016.8 hPa 412 W/m² 0 mm 4.953 mm 2.6 km/h
Min 13.2 °C
04:20
9.9 °C
19:45
13.2 °C
04:20
28%
17:05
1015.4 hPa
19:00
0 km/h (Böe)
00:00 km/h
Zeit
00:00 18.1 °C 13.8 °C 18.1 °C 76% 1016.7 hPa 0 W/m² 0.0 mm 0.000 mm 0.0 km/h
00:05 17.9 °C 13.8 °C 17.9 °C 77% 1016.6 hPa 0 W/m² 0.0 mm 0.000 mm 0.0 km/h
00:10 17.8 °C 13.7 °C 17.8 °C 77% 1016.6 hPa 0 W/m² 0.0 mm 0.000 mm 0.0 km/h
00:15 17.7 °C 13.6 °C 17.7 °C 77% 1016.7 hPa 0 W/m² 0.0 mm 0.000 mm 0.0 km/h
00:20 17.5 °C 13.4 °C 17.5 °C 77% 1016.6 hPa 0 W/m² 0.0 mm 0.000 mm 0.0 km/h
00:25 17.3 °C 13.2 °C 17.3 °C 77% 1016.6 hPa 0 W/m² 0.0 mm 0.000 mm 0.0 km/h
00:30 17.2 °C 12.9 °C 17.2 °C 76% 1016.6 hPa 0 W/m² 0.0 mm 0.000 mm 0.0 km/h
00:35 17.0 °C 12.9 °C 17.0 °C 77% 1016.5 hPa 0 W/m² 0.0 mm 0.000 mm 0.0 km/h
00:40 16.9 °C 13.2 °C 16.9 °C 79% 1016.5 hPa 0 W/m² 0.0 mm 0.000 mm 0.0 km/h
00:45 16.8 °C 13.3 °C 16.8 °C 80% 1016.6 hPa 0 W/m² 0.0 mm 0.000 mm 0.0 km/h
00:50 16.6 °C 13.1 °C 16.6 °C 80% 1016.6 hPa 0 W/m² 0.0 mm 0.000 mm 0.0 km/h
00:55 16.5 °C 12.8 °C 16.5 °C 79% 1016.6 hPa 0 W/m² 0.0 mm 0.000 mm 0.0 km/h
01:00 16.3 °C 12.6 °C 16.3 °C 79% 1016.7 hPa 0 W/m² 0.0 mm 0.025 mm 0.0 km/h
01:05 16.2 °C 12.7 °C 16.2 °C 80% 1016.7 hPa 0 W/m² 0.0 mm 0.000 mm 0.0 km/h
01:10 16.1 °C 12.8 °C 16.1 °C 81% 1016.7 hPa 0 W/m² 0.0 mm 0.000 mm 0.0 km/h
01:15 16.0 °C 12.7 °C 16.0 °C 81% 1016.8 hPa 0 W/m² 0.0 mm 0.000 mm 0.0 km/h
01:20 15.8 °C 12.5 °C 15.8 °C 81% 1016.7 hPa 0 W/m² 0.0 mm 0.000 mm 0.0 km/h
01:25 15.8 °C 12.7 °C 15.8 °C 82% 1016.7 hPa 0 W/m² 0.0 mm 0.000 mm 0.0 km/h
01:30 15.7 °C 12.6 °C 15.7 °C 82% 1016.6 hPa 0 W/m² 0.0 mm 0.000 mm 0.0 km/h
01:35 15.6 °C 12.5 °C 15.6 °C 82% 1016.5 hPa 0 W/m² 0.0 mm 0.000 mm 0.0 km/h
01:40 15.5 °C 12.6 °C 15.5 °C 83% 1016.6 hPa 0 W/m² 0.0 mm 0.000 mm 0.0 km/h
01:45 15.4 °C 12.5 °C 15.4 °C 83% 1016.6 hPa 0 W/m² 0.0 mm 0.000 mm 0.0 km/h
01:50 15.3 °C 12.4 °C 15.3 °C 83% 1016.5 hPa 0 W/m² 0.0 mm 0.000 mm 0.0 km/h
01:55 15.2 °C 12.1 °C 15.2 °C 82% 1016.6 hPa 0 W/m² 0.0 mm 0.000 mm 0.0 km/h
02:00 15.2 °C 12.3 °C 15.2 °C 83% 1016.5 hPa 0 W/m² 0.0 mm 0.026 mm 0.0 km/h
02:05 15.1 °C 12.2 °C 15.1 °C 83% 1016.5 hPa 0 W/m² 0.0 mm 0.000 mm 0.0 km/h
02:10 15.1 °C 12.4 °C 15.1 °C 84% 1016.6 hPa 0 W/m² 0.0 mm 0.000 mm 0.0 km/h
02:15 15.0 °C 12.1 °C 15.0 °C 83% 1016.6 hPa 0 W/m² 0.0 mm 0.000 mm 0.0 km/h
02:20 14.9 °C 12.0 °C 14.9 °C 83% 1016.6 hPa 0 W/m² 0.0 mm 0.000 mm 0.0 km/h
02:25 14.8 °C 11.9 °C 14.8 °C 83% 1016.6 hPa 0 W/m² 0.0 mm 0.000 mm 0.0 km/h
02:30 14.8 °C 11.9 °C 14.8 °C 83% 1016.8 hPa 0 W/m² 0.0 mm 0.000 mm 0.0 km/h
02:35 14.7 °C 12.0 °C 14.7 °C 84% 1016.7 hPa 0 W/m² 0.0 mm 0.000 mm 0.0 km/h
02:40 14.6 °C 11.9 °C 14.6 °C 84% 1016.6 hPa 0 W/m² 0.0 mm 0.000 mm 0.0 km/h
02:45 14.6 °C 11.9 °C 14.6 °C 84% 1016.6 hPa 0 W/m² 0.0 mm 0.000 mm 0.0 km/h
02:50 14.4 °C 11.7 °C 14.4 °C 84% 1016.6 hPa 0 W/m² 0.0 mm 0.000 mm 0.0 km/h
02:55 14.3 °C 11.6 °C 14.3 °C 84% 1016.7 hPa 0 W/m² 0.0 mm 0.000 mm 0.0 km/h
03:00 14.3 °C 11.8 °C 14.3 °C 85% 1016.5 hPa 0 W/m² 0.0 mm 0.025 mm 0.0 km/h
03:05 14.2 °C 11.7 °C 14.2 °C 85% 1016.7 hPa 0 W/m² 0.0 mm 0.000 mm 0.0 km/h
03:10 14.1 °C 11.6 °C 14.1 °C 85% 1016.6 hPa 0 W/m² 0.0 mm 0.000 mm 0.0 km/h
03:15 14.1 °C 11.8 °C 14.1 °C 86% 1016.6 hPa 0 W/m² 0.0 mm 0.000 mm 0.0 km/h
03:20 14.0 °C 11.7 °C 14.0 °C 86% 1016.6 hPa 0 W/m² 0.0 mm 0.000 mm 0.0 km/h
03:25 13.9 °C 11.6 °C 13.9 °C 86% 1016.7 hPa 0 W/m² 0.0 mm 0.000 mm 0.0 km/h
03:30 13.8 °C 11.5 °C 13.8 °C 86% 1016.7 hPa 0 W/m² 0.0 mm 0.000 mm 0.0 km/h
03:35 13.7 °C 11.4 °C 13.7 °C 86% 1016.7 hPa 0 W/m² 0.0 mm 0.000 mm 0.0 km/h
03:40 13.7 °C 11.6 °C 13.7 °C 87% 1016.7 hPa 0 W/m² 0.0 mm 0.000 mm 0.0 km/h
03:45 13.6 °C 11.5 °C 13.6 °C 87% 1016.8 hPa 0 W/m² 0.0 mm 0.000 mm 0.0 km/h
03:50 13.5 °C 11.4 °C 13.5 °C 87% 1016.8 hPa 0 W/m² 0.0 mm 0.000 mm 0.0 km/h
03:55 13.4 °C 11.5 °C 13.4 °C 88% 1016.6 hPa 0 W/m² 0.0 mm 0.000 mm 0.0 km/h
04:00 13.4 °C 11.5 °C 13.4 °C 88% 1016.7 hPa 0 W/m² 0.0 mm 0.000 mm 0.0 km/h
04:05 13.4 °C 11.3 °C 13.4 °C 87% 1016.9 hPa 0 W/m² 0.0 mm 0.000 mm 0.0 km/h
04:10 13.3 °C 11.4 °C 13.3 °C 88% 1016.8 hPa 0 W/m² 0.0 mm 0.000 mm 0.0 km/h
04:15 13.3 °C 11.4 °C 13.3 °C 88% 1016.9 hPa 0 W/m² 0.0 mm 0.000 mm 0.0 km/h
04:20 13.2 °C 11.3 °C 13.2 °C 88% 1016.9 hPa 0 W/m² 0.0 mm 0.000 mm 0.0 km/h
04:25 13.2 °C 11.3 °C 13.2 °C 88% 1016.9 hPa 0 W/m² 0.0 mm 0.000 mm 0.0 km/h
04:30 13.2 °C 11.4 °C 13.2 °C 89% 1017.0 hPa 0 W/m² 0.0 mm 0.000 mm 0.0 km/h
04:35 13.2 °C 11.4 °C 13.2 °C 89% 1016.9 hPa 0 W/m² 0.0 mm 0.000 mm 0.0 km/h
04:40 13.2 °C 11.4 °C 13.2 °C 89% 1016.9 hPa 0 W/m² 0.0 mm 0.000 mm 0.0 km/h
04:45 13.3 °C 11.5 °C 13.3 °C 89% 1016.9 hPa 0 W/m² 0.0 mm 0.000 mm 0.0 km/h
04:50 13.3 °C 11.5 °C 13.3 °C 89% 1016.9 hPa 0 W/m² 0.0 mm 0.000 mm 0.0 km/h
04:55 13.4 °C 11.6 °C 13.4 °C 89% 1016.9 hPa 0 W/m² 0.0 mm 0.000 mm 0.0 km/h
05:00 13.4 °C 11.8 °C 13.4 °C 90% 1016.9 hPa 0 W/m² 0.0 mm 0.000 mm 0.0 km/h
05:05 13.5 °C 11.9 °C 13.5 °C 90% 1016.9 hPa 0 W/m² 0.0 mm 0.000 mm 0.0 km/h
05:10 13.6 °C 12.0 °C 13.6 °C 90% 1017.0 hPa 0 W/m² 0.0 mm 0.000 mm 2.0 km/h
05:15 13.6 °C 12.0 °C 13.6 °C 90% 1016.9 hPa 0 W/m² 0.0 mm 0.000 mm 0.4 km/h
05:20 13.6 °C 11.8 °C 13.6 °C 89% 1017.0 hPa 0 W/m² 0.0 mm 0.000 mm 0.0 km/h
05:25 13.6 °C 11.8 °C 13.6 °C 89% 1017.0 hPa 0 W/m² 0.0 mm 0.000 mm 0.0 km/h
05:30 13.6 °C 11.8 °C 13.6 °C 89% 1017.0 hPa 0 W/m² 0.0 mm 0.000 mm 0.0 km/h
05:35 13.5 °C 11.7 °C 13.5 °C 89% 1017.1 hPa 0 W/m² 0.0 mm 0.000 mm 0.0 km/h
05:40 13.4 °C 11.6 °C 13.4 °C 89% 1017.0 hPa 0 W/m² 0.0 mm 0.000 mm 0.0 km/h
05:45 13.4 °C 11.6 °C 13.4 °C 89% 1017.3 hPa 5 W/m² 0.0 mm 0.000 mm 0.0 km/h
05:50 13.3 °C 11.5 °C 13.3 °C 89% 1017.2 hPa 8 W/m² 0.0 mm 0.000 mm 0.0 km/h
05:55 13.3 °C 11.5 °C 13.3 °C 89% 1017.2 hPa 11 W/m² 0.0 mm 0.000 mm 0.0 km/h
06:00 13.3 °C 11.7 °C 13.3 °C 90% 1017.3 hPa 15 W/m² 0.0 mm 0.000 mm 0.0 km/h
06:05 13.3 °C 11.7 °C 13.3 °C 90% 1017.2 hPa 19 W/m² 0.0 mm 0.000 mm 0.0 km/h
06:10 13.3 °C 11.7 °C 13.3 °C 90% 1017.2 hPa 23 W/m² 0.0 mm 0.000 mm 0.0 km/h
06:15 13.3 °C 11.7 °C 13.3 °C 90% 1017.3 hPa 27 W/m² 0.0 mm 0.000 mm 0.0 km/h
06:20 13.3 °C 11.7 °C 13.3 °C 90% 1017.2 hPa 32 W/m² 0.0 mm 0.000 mm 0.0 km/h
06:25 13.3 °C 11.7 °C 13.3 °C 90% 1017.3 hPa 40 W/m² 0.0 mm 0.000 mm 0.0 km/h
06:30 13.4 °C 11.8 °C 13.4 °C 90% 1017.5 hPa 50 W/m² 0.0 mm 0.000 mm 0.0 km/h
06:35 13.4 °C 11.8 °C 13.4 °C 90% 1017.4 hPa 55 W/m² 0.0 mm 0.000 mm 0.0 km/h
06:40 13.5 °C 11.9 °C 13.5 °C 90% 1017.4 hPa 54 W/m² 0.0 mm 0.000 mm 0.0 km/h
06:45 13.5 °C 11.9 °C 13.5 °C 90% 1017.4 hPa 59 W/m² 0.0 mm 0.000 mm 0.0 km/h
06:50 13.6 °C 12.0 °C 13.6 °C 90% 1017.5 hPa 69 W/m² 0.0 mm 0.000 mm 0.0 km/h
06:55 13.7 °C 12.1 °C 13.7 °C 90% 1017.5 hPa 91 W/m² 0.0 mm 0.000 mm 0.0 km/h
07:00 13.9 °C 12.3 °C 13.9 °C 90% 1017.5 hPa 105 W/m² 0.0 mm 0.026 mm 0.0 km/h
07:05 14.1 °C 12.3 °C 14.1 °C 89% 1017.5 hPa 97 W/m² 0.0 mm 0.000 mm 0.0 km/h
07:10 14.2 °C 12.6 °C 14.2 °C 90% 1017.7 hPa 103 W/m² 0.0 mm 0.000 mm 0.0 km/h
07:15 14.6 °C 12.8 °C 14.6 °C 89% 1017.6 hPa 141 W/m² 0.0 mm 0.000 mm 0.3 km/h
07:20 14.8 °C 13.0 °C 14.8 °C 89% 1017.5 hPa 151 W/m² 0.0 mm 0.000 mm 0.3 km/h
07:25 15.2 °C 13.2 °C 15.2 °C 88% 1017.7 hPa 202 W/m² 0.0 mm 0.000 mm 0.0 km/h
07:30 15.6 °C 13.3 °C 15.6 °C 86% 1017.7 hPa 152 W/m² 0.0 mm 0.000 mm 0.1 km/h
07:35 15.8 °C 13.3 °C 15.8 °C 85% 1017.6 hPa 183 W/m² 0.0 mm 0.000 mm 0.1 km/h
07:40 16.1 °C 13.4 °C 16.1 °C 84% 1017.7 hPa 204 W/m² 0.0 mm 0.000 mm 0.1 km/h
07:45 16.3 °C 13.4 °C 16.3 °C 83% 1017.7 hPa 190 W/m² 0.0 mm 0.000 mm 0.6 km/h
07:50 16.4 °C 13.5 °C 16.4 °C 83% 1017.7 hPa 215 W/m² 0.0 mm 0.000 mm 0.0 km/h
07:55 16.5 °C 13.4 °C 16.5 °C 82% 1017.8 hPa 236 W/m² 0.0 mm 0.000 mm 0.2 km/h
08:00 16.7 °C 13.6 °C 16.7 °C 82% 1017.9 hPa 208 W/m² 0.0 mm 0.101 mm 0.4 km/h
08:05 16.9 °C 14.0 °C 16.9 °C 83% 1017.9 hPa 332 W/m² 0.0 mm 0.000 mm 0.4 km/h
08:10 17.3 °C 14.0 °C 17.3 °C 81% 1017.9 hPa 321 W/m² 0.0 mm 0.000 mm 0.2 km/h
08:15 17.6 °C 14.3 °C 17.6 °C 81% 1017.8 hPa 302 W/m² 0.0 mm 0.000 mm 0.1 km/h
08:16 17.7 °C 14.2 °C 17.7 °C 80% 1017.8 hPa 327 W/m² 0.0 mm 0.000 mm 0.0 km/h
08:17 17.7 °C 14.2 °C 17.7 °C 80% 1017.8 hPa 281 W/m² 0.0 mm 0.000 mm 0.0 km/h
08:18 17.8 °C 14.3 °C 17.8 °C 80% 1017.8 hPa 317 W/m² 0.0 mm 0.000 mm 0.0 km/h
08:19 17.8 °C 14.3 °C 17.8 °C 80% 1017.8 hPa 290 W/m² 0.0 mm 0.000 mm 0.0 km/h
08:20 17.9 °C 14.2 °C 17.9 °C 79% 1018.0 hPa 218 W/m² 0.0 mm 0.000 mm 0.0 km/h
08:25 18.2 °C 14.7 °C 18.2 °C 80% 1017.9 hPa 291 W/m² 0.0 mm 0.000 mm 0.0 km/h
08:26 18.2 °C 14.5 °C 18.2 °C 79% 1017.8 hPa 251 W/m² 0.0 mm 0.000 mm 1.6 km/h
08:27 18.2 °C 14.5 °C 18.2 °C 79% 1017.8 hPa 190 W/m² 0.0 mm 0.000 mm 0.0 km/h
08:28 18.3 °C 14.6 °C 18.3 °C 79% 1017.8 hPa 155 W/m² 0.0 mm 0.000 mm 0.0 km/h
08:29 18.3 °C 14.4 °C 18.3 °C 78% 1017.8 hPa 162 W/m² 0.0 mm 0.000 mm 0.0 km/h
08:30 18.4 °C 14.3 °C 18.4 °C 77% 1017.8 hPa 261 W/m² 0.0 mm 0.000 mm 0.0 km/h
08:35 18.5 °C 14.4 °C 18.5 °C 77% 1017.8 hPa 282 W/m² 0.0 mm 0.000 mm 0.9 km/h
08:40 18.7 °C 14.6 °C 18.7 °C 77% 1017.9 hPa 268 W/m² 0.0 mm 0.000 mm 0.1 km/h
08:45 18.9 °C 14.2 °C 18.9 °C 74% 1017.8 hPa 399 W/m² 0.0 mm 0.000 mm 0.2 km/h
08:50 19.2 °C 14.2 °C 19.2 °C 73% 1017.9 hPa 320 W/m² 0.0 mm 0.000 mm 0.0 km/h
08:55 19.6 °C 14.4 °C 19.6 °C 72% 1017.7 hPa 430 W/m² 0.0 mm 0.000 mm 0.0 km/h
09:00 19.9 °C 13.6 °C 19.9 °C 67% 1017.7 hPa 453 W/m² 0.0 mm 0.000 mm 0.0 km/h
09:05 20.4 °C 13.8 °C 20.4 °C 66% 1017.9 hPa 395 W/m² 0.0 mm 0.178 mm 0.0 km/h
09:10 20.7 °C 13.4 °C 20.7 °C 63% 1017.9 hPa 387 W/m² 0.0 mm 0.000 mm 0.0 km/h
09:15 21.1 °C 13.8 °C 21.1 °C 63% 1017.9 hPa 389 W/m² 0.0 mm 0.000 mm 0.0 km/h
09:20 21.5 °C 13.7 °C 21.5 °C 61% 1018.0 hPa 325 W/m² 0.0 mm 0.000 mm 0.0 km/h
09:25 21.7 °C 13.8 °C 21.7 °C 61% 1018.1 hPa 457 W/m² 0.0 mm 0.000 mm 0.0 km/h
09:30 21.9 °C 13.8 °C 21.9 °C 60% 1018.0 hPa 509 W/m² 0.0 mm 0.000 mm 0.0 km/h
09:35 22.2 °C 13.8 °C 22.2 °C 59% 1018.1 hPa 480 W/m² 0.0 mm 0.000 mm 0.0 km/h
09:40 22.3 °C 13.6 °C 22.3 °C 58% 1018.1 hPa 388 W/m² 0.0 mm 0.000 mm 0.5 km/h
09:45 22.4 °C 14.2 °C 22.4 °C 60% 1018.0 hPa 523 W/m² 0.0 mm 0.000 mm 2.3 km/h
09:50 22.7 °C 14.5 °C 22.7 °C 60% 1017.9 hPa 610 W/m² 0.0 mm 0.000 mm 5.0 km/h
09:55 22.9 °C 14.7 °C 22.9 °C 60% 1018.0 hPa 636 W/m² 0.0 mm 0.000 mm 0.0 km/h
10:00 23.2 °C 14.5 °C 23.2 °C 58% 1018.1 hPa 465 W/m² 0.0 mm 0.279 mm 1.0 km/h
10:05 23.3 °C 14.6 °C 23.3 °C 58% 1018.0 hPa 478 W/m² 0.0 mm 0.000 mm 0.1 km/h
10:10 23.6 °C 14.6 °C 23.6 °C 57% 1018.0 hPa 569 W/m² 0.0 mm 0.000 mm 1.1 km/h
10:15 23.9 °C 14.3 °C 23.9 °C 55% 1018.0 hPa 529 W/m² 0.0 mm 0.000 mm 0.0 km/h
10:20 24.2 °C 14.6 °C 24.2 °C 55% 1018.0 hPa 554 W/m² 0.0 mm 0.000 mm 0.1 km/h
10:25 24.4 °C 14.8 °C 24.4 °C 55% 1017.9 hPa 635 W/m² 0.0 mm 0.000 mm 0.4 km/h
10:30 24.7 °C 14.8 °C 24.7 °C 54% 1018.0 hPa 635 W/m² 0.0 mm 0.000 mm 0.5 km/h
10:35 24.9 °C 14.9 °C 24.9 °C 54% 1018.0 hPa 660 W/m² 0.0 mm 0.000 mm 5.0 km/h
10:40 25.2 °C 14.6 °C 25.2 °C 52% 1017.9 hPa 666 W/m² 0.0 mm 0.000 mm 1.6 km/h
10:45 25.4 °C 14.2 °C 25.4 °C 50% 1017.9 hPa 684 W/m² 0.0 mm 0.000 mm 0.8 km/h
10:50 25.7 °C 14.2 °C 25.7 °C 49% 1017.9 hPa 656 W/m² 0.0 mm 0.000 mm 0.0 km/h
10:55 26.0 °C 13.8 °C 26.0 °C 47% 1018.0 hPa 695 W/m² 0.0 mm 0.000 mm 1.3 km/h
11:00 26.1 °C 14.5 °C 26.1 °C 49% 1018.1 hPa 733 W/m² 0.0 mm 0.407 mm 1.6 km/h
11:05 26.3 °C 14.1 °C 26.3 °C 47% 1018.2 hPa 594 W/m² 0.0 mm 0.000 mm 3.2 km/h
11:10 26.6 °C 14.3 °C 26.6 °C 47% 1017.9 hPa 714 W/m² 0.0 mm 0.000 mm 2.5 km/h
11:15 26.8 °C 13.5 °C 26.8 °C 44% 1017.8 hPa 546 W/m² 0.0 mm 0.000 mm 1.2 km/h
11:20 26.8 °C 12.8 °C 26.8 °C 42% 1017.8 hPa 578 W/m² 0.0 mm 0.000 mm 2.5 km/h
11:25 27.1 °C 12.7 °C 27.1 °C 41% 1017.8 hPa 634 W/m² 0.0 mm 0.000 mm 4.3 km/h
11:30 27.2 °C 13.5 °C 27.2 °C 43% 1017.7 hPa 550 W/m² 0.0 mm 0.000 mm 5.2 km/h
11:35 27.1 °C 13.4 °C 27.1 °C 43% 1017.6 hPa 574 W/m² 0.0 mm 0.000 mm 3.1 km/h
11:40 26.9 °C 13.2 °C 26.9 °C 43% 1017.7 hPa 699 W/m² 0.0 mm 0.000 mm 1.7 km/h
11:45 27.3 °C 12.9 °C 27.3 °C 41% 1017.7 hPa 755 W/m² 0.0 mm 0.000 mm 1.8 km/h
11:50 27.4 °C 12.6 °C 26.7 °C 40% 1017.7 hPa 739 W/m² 0.0 mm 0.000 mm 10.7 km/h
11:55 27.4 °C 12.6 °C 27.4 °C 40% 1017.8 hPa 788 W/m² 0.0 mm 0.000 mm 4.7 km/h
12:00 27.8 °C 12.9 °C 26.8 °C 40% 1017.8 hPa 776 W/m² 0.0 mm 0.482 mm 13.6 km/h
12:05 28.1 °C 13.6 °C 28.1 °C 41% 1017.7 hPa 790 W/m² 0.0 mm 0.000 mm 6.3 km/h
12:10 28.2 °C 12.5 °C 28.2 °C 38% 1017.7 hPa 804 W/m² 0.0 mm 0.000 mm 4.4 km/h
12:15 28.3 °C 13.0 °C 28.1 °C 39% 1017.7 hPa 809 W/m² 0.0 mm 0.000 mm 7.7 km/h
12:20 28.2 °C 12.9 °C 27.4 °C 39% 1017.7 hPa 853 W/m² 0.0 mm 0.000 mm 12.9 km/h
12:25 28.3 °C 14.9 °C 28.3 °C 44% 1017.9 hPa 835 W/m² 0.0 mm 0.000 mm 5.8 km/h
12:30 28.6 °C 13.7 °C 28.3 °C 40% 1017.6 hPa 794 W/m² 0.0 mm 0.000 mm 8.6 km/h
12:35 28.6 °C 12.9 °C 27.9 °C 38% 1017.4 hPa 814 W/m² 0.0 mm 0.000 mm 11.9 km/h
12:40 28.7 °C 13.7 °C 28.7 °C 40% 1017.5 hPa 806 W/m² 0.0 mm 0.000 mm 4.1 km/h
12:45 28.9 °C 13.9 °C 28.8 °C 40% 1017.5 hPa 832 W/m² 0.0 mm 0.000 mm 7.5 km/h
12:50 29.1 °C 12.9 °C 28.4 °C 37% 1017.5 hPa 854 W/m² 0.0 mm 0.000 mm 12.8 km/h
12:55 29.3 °C 12.2 °C 29.3 °C 35% 1017.4 hPa 847 W/m² 0.0 mm 0.000 mm 4.7 km/h
13:00 29.1 °C 12.1 °C 28.3 °C 35% 1017.3 hPa 745 W/m² 0.0 mm 0.610 mm 15.3 km/h
13:05 28.9 °C 12.3 °C 28.9 °C 36% 1017.3 hPa 926 W/m² 0.0 mm 0.000 mm 5.0 km/h
13:10 29.3 °C 13.5 °C 29.3 °C 38% 1017.3 hPa 907 W/m² 0.0 mm 0.000 mm 3.9 km/h
13:15 29.2 °C 12.1 °C 29.0 °C 35% 1017.3 hPa 593 W/m² 0.0 mm 0.000 mm 8.4 km/h
13:20 28.8 °C 11.4 °C 28.3 °C 34% 1017.3 hPa 279 W/m² 0.0 mm 0.000 mm 10.9 km/h
13:25 28.8 °C 12.2 °C 28.8 °C 36% 1017.3 hPa 558 W/m² 0.0 mm 0.000 mm 2.9 km/h
13:30 28.9 °C 11.9 °C 28.6 °C 35% 1017.3 hPa 614 W/m² 0.0 mm 0.000 mm 8.6 km/h
13:35 28.8 °C 12.6 °C 28.8 °C 37% 1017.4 hPa 583 W/m² 0.0 mm 0.000 mm 0.4 km/h
13:40 29.2 °C 12.6 °C 29.2 °C 36% 1017.2 hPa 575 W/m² 0.0 mm 0.000 mm 6.1 km/h
13:45 29.3 °C 12.2 °C 29.3 °C 35% 1017.2 hPa 574 W/m² 0.0 mm 0.000 mm 2.1 km/h
13:50 29.2 °C 11.7 °C 29.2 °C 34% 1017.2 hPa 690 W/m² 0.0 mm 0.000 mm 5.6 km/h
13:55 29.3 °C 11.8 °C 29.1 °C 34% 1017.2 hPa 818 W/m² 0.0 mm 0.000 mm 8.4 km/h
14:00 29.7 °C 12.6 °C 29.6 °C 35% 1017.3 hPa 880 W/m² 0.0 mm 0.508 mm 7.7 km/h
14:05 29.9 °C 12.3 °C 29.7 °C 34% 1017.3 hPa 491 W/m² 0.0 mm 0.000 mm 8.1 km/h
14:10 29.6 °C 11.1 °C 29.6 °C 32% 1017.1 hPa 279 W/m² 0.0 mm 0.000 mm 6.4 km/h
14:15 29.8 °C 12.2 °C 29.2 °C 34% 1017.0 hPa 849 W/m² 0.0 mm 0.000 mm 14.0 km/h
14:20 29.9 °C 11.9 °C 29.6 °C 33% 1017.0 hPa 821 W/m² 0.0 mm 0.000 mm 9.6 km/h
14:25 29.8 °C 10.8 °C 29.7 °C 31% 1017.0 hPa 683 W/m² 0.0 mm 0.000 mm 7.5 km/h
14:30 29.9 °C 11.9 °C 29.9 °C 33% 1016.9 hPa 632 W/m² 0.0 mm 0.000 mm 4.3 km/h
14:35 30.3 °C 12.2 °C 30.1 °C 33% 1016.9 hPa 780 W/m² 0.0 mm 0.000 mm 9.3 km/h
14:40 30.4 °C 12.3 °C 30.2 °C 33% 1016.8 hPa 652 W/m² 0.0 mm 0.000 mm 8.5 km/h
14:45 30.6 °C 11.5 °C 30.6 °C 31% 1016.8 hPa 570 W/m² 0.0 mm 0.000 mm 5.3 km/h
14:50 30.1 °C 10.6 °C 29.4 °C 30% 1016.9 hPa 408 W/m² 0.0 mm 0.000 mm 16.5 km/h
14:55 29.9 °C 11.9 °C 29.9 °C 33% 1016.8 hPa 373 W/m² 0.0 mm 0.000 mm 0.9 km/h
15:00 29.7 °C 11.7 °C 29.5 °C 33% 1016.9 hPa 505 W/m² 0.0 mm 0.483 mm 8.5 km/h
15:05 29.8 °C 12.7 °C 29.6 °C 35% 1016.7 hPa 737 W/m² 0.0 mm 0.000 mm 8.4 km/h
15:10 30.3 °C 11.7 °C 30.0 °C 32% 1016.8 hPa 856 W/m² 0.0 mm 0.000 mm 10.7 km/h
15:15 30.3 °C 12.2 °C 29.6 °C 33% 1016.6 hPa 810 W/m² 0.0 mm 0.000 mm 18.9 km/h
15:20 30.7 °C 12.1 °C 30.7 °C 32% 1016.6 hPa 751 W/m² 0.0 mm 0.000 mm 5.5 km/h
15:25 30.6 °C 10.5 °C 29.8 °C 29% 1016.6 hPa 552 W/m² 0.0 mm 0.000 mm 24.5 km/h
15:30 30.4 °C 10.9 °C 29.9 °C 30% 1016.7 hPa 743 W/m² 0.0 mm 0.000 mm 14.8 km/h
15:35 30.4 °C 11.8 °C 30.4 °C 32% 1016.6 hPa 684 W/m² 0.0 mm 0.000 mm 4.1 km/h
15:40 30.4 °C 11.8 °C 30.4 °C 32% 1016.5 hPa 676 W/m² 0.0 mm 0.000 mm 3.9 km/h
15:45 30.6 °C 12.5 °C 30.6 °C 33% 1016.5 hPa 724 W/m² 0.0 mm 0.000 mm 5.7 km/h
15:50 30.6 °C 12.5 °C 30.6 °C 33% 1016.5 hPa 698 W/m² 0.0 mm 0.000 mm 6.0 km/h
15:55 30.6 °C 11.5 °C 30.6 °C 31% 1016.4 hPa 708 W/m² 0.0 mm 0.000 mm 2.0 km/h
16:00 30.9 °C 11.8 °C 30.9 °C 31% 1016.4 hPa 671 W/m² 0.0 mm 0.584 mm 4.2 km/h
16:05 30.9 °C 11.3 °C 30.8 °C 30% 1016.4 hPa 678 W/m² 0.0 mm 0.000 mm 7.6 km/h
16:10 30.9 °C 12.7 °C 30.9 °C 33% 1016.4 hPa 673 W/m² 0.0 mm 0.000 mm 1.1 km/h
16:15 31.2 °C 11.5 °C 31.2 °C 30% 1016.4 hPa 677 W/m² 0.0 mm 0.000 mm 3.3 km/h
16:20 31.3 °C 11.6 °C 31.1 °C 30% 1016.3 hPa 674 W/m² 0.0 mm 0.000 mm 9.8 km/h
16:25 31.3 °C 11.6 °C 31.2 °C 30% 1016.3 hPa 630 W/m² 0.0 mm 0.000 mm 9.0 km/h
16:30 31.4 °C 11.2 °C 31.4 °C 29% 1016.1 hPa 637 W/m² 0.0 mm 0.000 mm 2.4 km/h
16:35 31.4 °C 11.7 °C 31.4 °C 30% 1016.2 hPa 631 W/m² 0.0 mm 0.000 mm 6.5 km/h
16:40 31.6 °C 11.4 °C 31.6 °C 29% 1016.1 hPa 624 W/m² 0.0 mm 0.000 mm 4.0 km/h
16:45 31.5 °C 11.3 °C 31.4 °C 29% 1016.1 hPa 623 W/m² 0.0 mm 0.000 mm 8.2 km/h
16:50 31.2 °C 11.0 °C 31.2 °C 29% 1016.1 hPa 608 W/m² 0.0 mm 0.000 mm 4.7 km/h
16:55 31.4 °C 11.2 °C 31.4 °C 29% 1016.0 hPa 598 W/m² 0.0 mm 0.000 mm 5.5 km/h
17:00 31.7 °C 12.0 °C 31.7 °C 30% 1015.9 hPa 555 W/m² 0.0 mm 0.508 mm 3.2 km/h
17:05 31.3 °C 10.6 °C 31.2 °C 28% 1016.0 hPa 546 W/m² 0.0 mm 0.000 mm 8.5 km/h
17:10 31.2 °C 11.5 °C 31.1 °C 30% 1015.9 hPa 563 W/m² 0.0 mm 0.000 mm 7.5 km/h
17:15 31.2 °C 11.5 °C 31.2 °C 30% 1016.1 hPa 420 W/m² 0.0 mm 0.000 mm 4.7 km/h
17:20 31.0 °C 11.9 °C 31.0 °C 31% 1015.9 hPa 261 W/m² 0.0 mm 0.000 mm 0.6 km/h
17:25 30.4 °C 11.3 °C 30.4 °C 31% 1016.1 hPa 97 W/m² 0.0 mm 0.000 mm 4.1 km/h
17:30 29.9 °C 11.4 °C 29.9 °C 32% 1015.9 hPa 187 W/m² 0.0 mm 0.000 mm 5.2 km/h
17:35 29.9 °C 11.4 °C 29.8 °C 32% 1015.8 hPa 460 W/m² 0.0 mm 0.000 mm 7.6 km/h
17:40 30.1 °C 12.5 °C 30.1 °C 34% 1015.6 hPa 396 W/m² 0.0 mm 0.000 mm 6.5 km/h
17:45 30.2 °C 12.1 °C 30.0 °C 33% 1015.6 hPa 455 W/m² 0.0 mm 0.000 mm 9.3 km/h
17:50 30.2 °C 11.7 °C 30.1 °C 32% 1015.5 hPa 432 W/m² 0.0 mm 0.000 mm 7.4 km/h
17:55 30.3 °C 12.2 °C 30.3 °C 33% 1015.6 hPa 432 W/m² 0.0 mm 0.000 mm 5.0 km/h
18:00 30.4 °C 12.3 °C 30.4 °C 33% 1015.6 hPa 420 W/m² 0.0 mm 0.330 mm 2.4 km/h
18:05 30.4 °C 12.3 °C 30.0 °C 33% 1015.6 hPa 406 W/m² 0.0 mm 0.000 mm 12.9 km/h
18:10 30.3 °C 12.2 °C 30.3 °C 33% 1015.6 hPa 391 W/m² 0.0 mm 0.000 mm 5.7 km/h
18:15 30.2 °C 12.1 °C 30.2 °C 33% 1015.5 hPa 378 W/m² 0.0 mm 0.000 mm 6.0 km/h
18:20 30.3 °C 12.2 °C 30.3 °C 33% 1015.6 hPa 363 W/m² 0.0 mm 0.000 mm 0.4 km/h
18:25 30.3 °C 12.2 °C 30.3 °C 33% 1015.5 hPa 352 W/m² 0.0 mm 0.000 mm 3.1 km/h
18:30 30.1 °C 12.0 °C 30.1 °C 33% 1015.5 hPa 339 W/m² 0.0 mm 0.000 mm 2.7 km/h
18:35 29.9 °C 11.4 °C 29.9 °C 32% 1015.5 hPa 327 W/m² 0.0 mm 0.000 mm 3.5 km/h
18:40 29.6 °C 11.6 °C 29.6 °C 33% 1015.6 hPa 250 W/m² 0.0 mm 0.000 mm 5.2 km/h
18:45 29.4 °C 11.9 °C 29.4 °C 34% 1015.5 hPa 43 W/m² 0.0 mm 0.000 mm 1.1 km/h
18:50 29.2 °C 11.3 °C 29.2 °C 33% 1015.5 hPa 42 W/m² 0.0 mm 0.000 mm 2.2 km/h
18:55 28.9 °C 11.4 °C 28.9 °C 34% 1015.5 hPa 40 W/m² 0.0 mm 0.000 mm 3.5 km/h
19:00 28.8 °C 10.9 °C 28.8 °C 33% 1015.4 hPa 39 W/m² 0.0 mm 0.229 mm 0.2 km/h
19:05 28.7 °C 10.8 °C 28.7 °C 33% 1015.4 hPa 38 W/m² 0.0 mm 0.000 mm 1.6 km/h
19:10 28.5 °C 10.6 °C 28.5 °C 33% 1015.6 hPa 37 W/m² 0.0 mm 0.000 mm 4.0 km/h
19:15 28.4 °C 10.1 °C 28.1 °C 32% 1015.5 hPa 36 W/m² 0.0 mm 0.000 mm 8.4 km/h
19:20 28.3 °C 10.5 °C 28.3 °C 33% 1015.5 hPa 35 W/m² 0.0 mm 0.000 mm 0.6 km/h
19:25 28.2 °C 10.8 °C 28.2 °C 34% 1015.4 hPa 34 W/m² 0.0 mm 0.000 mm 4.6 km/h
19:30 28.0 °C 10.2 °C 28.0 °C 33% 1015.5 hPa 33 W/m² 0.0 mm 0.000 mm 0.6 km/h
19:35 27.9 °C 10.6 °C 27.9 °C 34% 1015.5 hPa 32 W/m² 0.0 mm 0.000 mm 1.9 km/h
19:40 27.8 °C 10.0 °C 27.8 °C 33% 1015.6 hPa 32 W/m² 0.0 mm 0.000 mm 2.6 km/h
19:45 27.7 °C 9.9 °C 27.7 °C 33% 1015.7 hPa 30 W/m² 0.0 mm 0.000 mm 0.8 km/h
19:50 27.7 °C 9.9 °C 27.7 °C 33% 1015.7 hPa 30 W/m² 0.0 mm 0.000 mm 3.9 km/h
19:55 27.6 °C 10.3 °C 27.6 °C 34% 1015.6 hPa 28 W/m² 0.0 mm 0.000 mm 1.6 km/h
20:00 27.4 °C 10.1 °C 27.1 °C 34% 1015.6 hPa 27 W/m² 0.0 mm 0.076 mm 8.0 km/h
20:05 27.3 °C 10.0 °C 27.3 °C 34% 1015.7 hPa 26 W/m² 0.0 mm 0.000 mm 5.8 km/h
20:10 27.1 °C 10.7 °C 27.1 °C 36% 1015.7 hPa 26 W/m² 0.0 mm 0.000 mm 3.0 km/h
20:15 26.9 °C 10.6 °C 26.9 °C 36% 1015.7 hPa 25 W/m² 0.0 mm 0.000 mm 2.6 km/h
20:20 26.7 °C 10.8 °C 26.7 °C 37% 1015.8 hPa 23 W/m² 0.0 mm 0.000 mm 2.7 km/h
20:25 26.4 °C 10.9 °C 26.4 °C 38% 1015.8 hPa 21 W/m² 0.0 mm 0.000 mm 1.8 km/h
20:30 26.3 °C 10.8 °C 26.3 °C 38% 1015.8 hPa 21 W/m² 0.0 mm 0.000 mm 0.2 km/h
20:35 26.2 °C 11.1 °C 26.2 °C 39% 1015.8 hPa 19 W/m² 0.0 mm 0.000 mm 0.1 km/h
20:40 26.0 °C 11.0 °C 26.0 °C 39% 1015.8 hPa 18 W/m² 0.0 mm 0.000 mm 0.2 km/h
20:45 25.8 °C 11.2 °C 25.8 °C 40% 1015.8 hPa 15 W/m² 0.0 mm 0.000 mm 0.1 km/h
20:50 25.7 °C 11.1 °C 25.7 °C 40% 1015.8 hPa 14 W/m² 0.0 mm 0.000 mm 0.1 km/h
20:55 25.5 °C 11.3 °C 25.5 °C 41% 1015.8 hPa 12 W/m² 0.0 mm 0.000 mm 0.0 km/h
21:00 25.3 °C 11.1 °C 25.3 °C 41% 1015.9 hPa 11 W/m² 0.0 mm 0.051 mm 0.0 km/h
21:05 25.2 °C 11.4 °C 25.2 °C 42% 1015.9 hPa 9 W/m² 0.0 mm 0.000 mm 0.0 km/h
21:10 25.0 °C 11.5 °C 25.0 °C 43% 1015.9 hPa 6 W/m² 0.0 mm 0.000 mm 0.0 km/h
21:15 24.8 °C 11.4 °C 24.8 °C 43% 1015.8 hPa 4 W/m² 0.0 mm 0.000 mm 0.0 km/h
21:20 24.7 °C 11.6 °C 24.7 °C 44% 1015.9 hPa 0 W/m² 0.0 mm 0.000 mm 0.0 km/h
21:25 24.5 °C 12.1 °C 24.5 °C 46% 1015.9 hPa 0 W/m² 0.0 mm 0.000 mm 0.0 km/h
21:30 24.3 °C 12.3 °C 24.3 °C 47% 1016.1 hPa 0 W/m² 0.0 mm 0.000 mm 0.0 km/h
21:35 24.1 °C 12.4 °C 24.1 °C 48% 1016.1 hPa 0 W/m² 0.0 mm 0.000 mm 0.0 km/h
21:40 23.9 °C 12.5 °C 23.9 °C 49% 1016.2 hPa 0 W/m² 0.0 mm 0.000 mm 0.0 km/h
21:45 23.6 °C 12.6 °C 23.6 °C 50% 1016.2 hPa 0 W/m² 0.0 mm 0.000 mm 0.0 km/h
21:50 23.4 °C 12.4 °C 23.4 °C 50% 1016.2 hPa 0 W/m² 0.0 mm 0.000 mm 0.0 km/h
21:55 23.2 °C 12.5 °C 23.2 °C 51% 1016.2 hPa 0 W/m² 0.0 mm 0.000 mm 0.0 km/h
22:00 22.9 °C 12.5 °C 22.9 °C 52% 1016.3 hPa 0 W/m² 0.0 mm 0.025 mm 0.0 km/h
22:05 22.7 °C 12.6 °C 22.7 °C 53% 1016.3 hPa 0 W/m² 0.0 mm 0.000 mm 0.0 km/h
22:10 22.5 °C 13.0 °C 22.5 °C 55% 1016.3 hPa 0 W/m² 0.0 mm 0.000 mm 0.0 km/h
22:15 22.3 °C 12.8 °C 22.3 °C 55% 1016.3 hPa 0 W/m² 0.0 mm 0.000 mm 0.0 km/h